sensor_id;sensor_type;location;lat;lon;timestamp;P1;durP1;ratioP1;P2;durP2;ratioP2
795;SDS011;381;48.770;9.188;2024-02-15T00:01:08;0.80;;;0.80;;
795;SDS011;381;48.770;9.188;2024-02-15T00:06:10;0.80;;;0.80;;
795;SDS011;381;48.770;9.188;2024-02-15T00:11:14;0.67;;;0.67;;
795;SDS011;381;48.770;9.188;2024-02-15T00:16:16;0.80;;;0.80;;
795;SDS011;381;48.770;9.188;2024-02-15T00:21:19;0.50;;;0.50;;
795;SDS011;381;48.770;9.188;2024-02-15T00:26:22;0.70;;;0.70;;
795;SDS011;381;48.770;9.188;2024-02-15T00:31:25;0.50;;;0.50;;
795;SDS011;381;48.770;9.188;2024-02-15T00:36:27;0.60;;;0.60;;
795;SDS011;381;48.770;9.188;2024-02-15T00:41:32;0.70;;;0.70;;
795;SDS011;381;48.770;9.188;2024-02-15T00:46:35;0.60;;;0.60;;
795;SDS011;381;48.770;9.188;2024-02-15T00:51:37;0.60;;;0.60;;
795;SDS011;381;48.770;9.188;2024-02-15T00:56:41;0.50;;;0.50;;
795;SDS011;381;48.770;9.188;2024-02-15T01:01:43;0.60;;;0.60;;
795;SDS011;381;48.770;9.188;2024-02-15T01:06:47;0.50;;;0.50;;
795;SDS011;381;48.770;9.188;2024-02-15T01:11:50;0.50;;;0.50;;
795;SDS011;381;48.770;9.188;2024-02-15T01:16:53;0.50;;;0.50;;
795;SDS011;381;48.770;9.188;2024-02-15T01:21:55;0.50;;;0.50;;
795;SDS011;381;48.770;9.188;2024-02-15T01:27:01;0.50;;;0.50;;
795;SDS011;381;48.770;9.188;2024-02-15T01:32:04;0.50;;;0.50;;
795;SDS011;381;48.770;9.188;2024-02-15T01:37:06;0.50;;;0.50;;
795;SDS011;381;48.770;9.188;2024-02-15T01:42:11;0.50;;;0.50;;
795;SDS011;381;48.770;9.188;2024-02-15T01:47:15;0.60;;;0.60;;
795;SDS011;381;48.770;9.188;2024-02-15T01:52:19;0.50;;;0.50;;
795;SDS011;381;48.770;9.188;2024-02-15T01:57:23;0.60;;;0.60;;
795;SDS011;381;48.770;9.188;2024-02-15T02:02:26;0.50;;;0.50;;
795;SDS011;381;48.770;9.188;2024-02-15T02:07:32;0.60;;;0.60;;
795;SDS011;381;48.770;9.188;2024-02-15T02:12:36;0.50;;;0.50;;
795;SDS011;381;48.770;9.188;2024-02-15T02:17:39;0.60;;;0.60;;
795;SDS011;381;48.770;9.188;2024-02-15T02:22:42;0.50;;;0.50;;
795;SDS011;381;48.770;9.188;2024-02-15T02:27:48;0.60;;;0.60;;
795;SDS011;381;48.770;9.188;2024-02-15T02:32:51;0.53;;;0.53;;
795;SDS011;381;48.770;9.188;2024-02-15T02:37:53;0.50;;;0.50;;
795;SDS011;381;48.770;9.188;2024-02-15T02:42:57;0.60;;;0.60;;
795;SDS011;381;48.770;9.188;2024-02-15T02:48:00;0.60;;;0.60;;
795;SDS011;381;48.770;9.188;2024-02-15T02:53:02;0.60;;;0.60;;
795;SDS011;381;48.770;9.188;2024-02-15T02:58:07;0.60;;;0.60;;
795;SDS011;381;48.770;9.188;2024-02-15T03:03:09;0.50;;;0.50;;
795;SDS011;381;48.770;9.188;2024-02-15T03:08:12;0.60;;;0.60;;
795;SDS011;381;48.770;9.188;2024-02-15T03:13:16;0.70;;;0.70;;
795;SDS011;381;48.770;9.188;2024-02-15T03:18:20;0.60;;;0.60;;
795;SDS011;381;48.770;9.188;2024-02-15T03:23:24;0.60;;;0.60;;
795;SDS011;381;48.770;9.188;2024-02-15T03:28:27;0.70;;;0.70;;
795;SDS011;381;48.770;9.188;2024-02-15T03:33:30;0.70;;;0.70;;
795;SDS011;381;48.770;9.188;2024-02-15T03:38:35;0.60;;;0.60;;
795;SDS011;381;48.770;9.188;2024-02-15T03:43:38;0.70;;;0.70;;
795;SDS011;381;48.770;9.188;2024-02-15T03:48:41;0.80;;;0.80;;
795;SDS011;381;48.770;9.188;2024-02-15T03:53:46;0.60;;;0.60;;
795;SDS011;381;48.770;9.188;2024-02-15T03:58:50;0.70;;;0.70;;
795;SDS011;381;48.770;9.188;2024-02-15T04:03:53;1.00;;;1.00;;
795;SDS011;381;48.770;9.188;2024-02-15T04:08:56;1.10;;;1.10;;
795;SDS011;381;48.770;9.188;2024-02-15T04:13:59;1.17;;;1.17;;
795;SDS011;381;48.770;9.188;2024-02-15T04:19:02;1.30;;;1.30;;
795;SDS011;381;48.770;9.188;2024-02-15T04:24:04;1.00;;;1.00;;
795;SDS011;381;48.770;9.188;2024-02-15T04:29:09;1.10;;;1.10;;
795;SDS011;381;48.770;9.188;2024-02-15T04:34:11;1.00;;;1.00;;
795;SDS011;381;48.770;9.188;2024-02-15T04:39:13;1.07;;;1.07;;
795;SDS011;381;48.770;9.188;2024-02-15T04:44:25;0.90;;;0.90;;
795;SDS011;381;48.770;9.188;2024-02-15T04:49:28;1.10;;;1.10;;
795;SDS011;381;48.770;9.188;2024-02-15T04:54:30;1.30;;;1.30;;
795;SDS011;381;48.770;9.188;2024-02-15T04:59:34;0.60;;;0.60;;
795;SDS011;381;48.770;9.188;2024-02-15T05:04:37;0.80;;;0.80;;
795;SDS011;381;48.770;9.188;2024-02-15T05:09:39;1.10;;;1.10;;
795;SDS011;381;48.770;9.188;2024-02-15T05:14:43;1.20;;;1.20;;
795;SDS011;381;48.770;9.188;2024-02-15T05:19:45;0.80;;;0.80;;
795;SDS011;381;48.770;9.188;2024-02-15T05:24:48;0.60;;;0.60;;
795;SDS011;381;48.770;9.188;2024-02-15T05:29:52;1.00;;;1.00;;
795;SDS011;381;48.770;9.188;2024-02-15T05:34:54;0.80;;;0.80;;
795;SDS011;381;48.770;9.188;2024-02-15T05:39:57;1.10;;;1.10;;
795;SDS011;381;48.770;9.188;2024-02-15T05:45:14;0.90;;;0.90;;
795;SDS011;381;48.770;9.188;2024-02-15T05:50:33;0.80;;;0.80;;
795;SDS011;381;48.770;9.188;2024-02-15T05:55:35;0.87;;;0.87;;
795;SDS011;381;48.770;9.188;2024-02-15T06:00:42;0.80;;;0.80;;
795;SDS011;381;48.770;9.188;2024-02-15T06:05:46;0.70;;;0.70;;
795;SDS011;381;48.770;9.188;2024-02-15T06:10:48;0.90;;;0.90;;
795;SDS011;381;48.770;9.188;2024-02-15T06:15:52;0.60;;;0.60;;
795;SDS011;381;48.770;9.188;2024-02-15T06:20:55;0.70;;;0.70;;
795;SDS011;381;48.770;9.188;2024-02-15T06:25:59;0.50;;;0.50;;
795;SDS011;381;48.770;9.188;2024-02-15T06:31:04;0.50;;;0.50;;
795;SDS011;381;48.770;9.188;2024-02-15T06:36:24;0.70;;;0.70;;
795;SDS011;381;48.770;9.188;2024-02-15T06:41:44;0.60;;;0.60;;
795;SDS011;381;48.770;9.188;2024-02-15T06:46:48;0.73;;;0.73;;
795;SDS011;381;48.770;9.188;2024-02-15T06:51:50;0.60;;;0.60;;
795;SDS011;381;48.770;9.188;2024-02-15T06:56:53;0.73;;;0.73;;
795;SDS011;381;48.770;9.188;2024-02-15T07:01:57;0.80;;;0.80;;
795;SDS011;381;48.770;9.188;2024-02-15T07:06:59;0.70;;;0.70;;
795;SDS011;381;48.770;9.188;2024-02-15T07:12:03;0.80;;;0.80;;
795;SDS011;381;48.770;9.188;2024-02-15T07:17:07;0.80;;;0.80;;
795;SDS011;381;48.770;9.188;2024-02-15T07:22:11;0.73;;;0.73;;
795;SDS011;381;48.770;9.188;2024-02-15T07:27:13;0.43;;;0.43;;
795;SDS011;381;48.770;9.188;2024-02-15T07:32:17;0.80;;;0.80;;
795;SDS011;381;48.770;9.188;2024-02-15T07:37:20;0.73;;;0.73;;
795;SDS011;381;48.770;9.188;2024-02-15T07:42:26;0.70;;;0.70;;
795;SDS011;381;48.770;9.188;2024-02-15T07:47:30;0.70;;;0.70;;
795;SDS011;381;48.770;9.188;2024-02-15T07:52:32;0.73;;;0.73;;
795;SDS011;381;48.770;9.188;2024-02-15T07:57:34;0.60;;;0.60;;
795;SDS011;381;48.770;9.188;2024-02-15T08:02:38;0.70;;;0.70;;
795;SDS011;381;48.770;9.188;2024-02-15T08:07:43;0.63;;;0.63;;
795;SDS011;381;48.770;9.188;2024-02-15T08:12:46;0.60;;;0.60;;
795;SDS011;381;48.770;9.188;2024-02-15T08:17:56;0.50;;;0.50;;
795;SDS011;381;48.770;9.188;2024-02-15T08:22:59;0.60;;;0.60;;
795;SDS011;381;48.770;9.188;2024-02-15T08:28:01;0.80;;;0.80;;
795;SDS011;381;48.770;9.188;2024-02-15T08:33:07;0.60;;;0.60;;
795;SDS011;381;48.770;9.188;2024-02-15T08:38:14;0.60;;;0.60;;
795;SDS011;381;48.770;9.188;2024-02-15T08:43:17;0.50;;;0.50;;
795;SDS011;381;48.770;9.188;2024-02-15T08:48:20;0.50;;;0.50;;
795;SDS011;381;48.770;9.188;2024-02-15T08:53:23;0.50;;;0.50;;
795;SDS011;381;48.770;9.188;2024-02-15T08:58:27;0.50;;;0.50;;
795;SDS011;381;48.770;9.188;2024-02-15T09:03:32;0.60;;;0.60;;
795;SDS011;381;48.770;9.188;2024-02-15T09:08:34;0.40;;;0.40;;
795;SDS011;381;48.770;9.188;2024-02-15T09:13:36;0.40;;;0.40;;
795;SDS011;381;48.770;9.188;2024-02-15T09:18:41;0.50;;;0.50;;
795;SDS011;381;48.770;9.188;2024-02-15T09:23:45;0.50;;;0.50;;
795;SDS011;381;48.770;9.188;2024-02-15T09:28:49;0.40;;;0.40;;
795;SDS011;381;48.770;9.188;2024-02-15T09:33:53;0.43;;;0.43;;
795;SDS011;381;48.770;9.188;2024-02-15T09:38:56;0.50;;;0.50;;
795;SDS011;381;48.770;9.188;2024-02-15T09:43:59;0.40;;;0.40;;
795;SDS011;381;48.770;9.188;2024-02-15T09:49:05;0.40;;;0.40;;
795;SDS011;381;48.770;9.188;2024-02-15T09:54:08;0.50;;;0.50;;
795;SDS011;381;48.770;9.188;2024-02-15T09:59:11;0.40;;;0.40;;
795;SDS011;381;48.770;9.188;2024-02-15T10:04:15;0.40;;;0.40;;
795;SDS011;381;48.770;9.188;2024-02-15T10:09:24;0.50;;;0.50;;
795;SDS011;381;48.770;9.188;2024-02-15T10:14:30;0.50;;;0.50;;
795;SDS011;381;48.770;9.188;2024-02-15T10:19:35;0.40;;;0.40;;
795;SDS011;381;48.770;9.188;2024-02-15T10:24:37;0.50;;;0.50;;
795;SDS011;381;48.770;9.188;2024-02-15T10:29:40;0.60;;;0.60;;
795;SDS011;381;48.770;9.188;2024-02-15T10:34:46;0.30;;;0.30;;
795;SDS011;381;48.770;9.188;2024-02-15T10:39:53;0.40;;;0.40;;
795;SDS011;381;48.770;9.188;2024-02-15T10:45:07;0.40;;;0.40;;
795;SDS011;381;48.770;9.188;2024-02-15T10:50:12;0.50;;;0.50;;
795;SDS011;381;48.770;9.188;2024-02-15T10:55:16;0.43;;;0.43;;
795;SDS011;381;48.770;9.188;2024-02-15T11:00:23;0.40;;;0.40;;
795;SDS011;381;48.770;9.188;2024-02-15T11:05:33;0.40;;;0.40;;
795;SDS011;381;48.770;9.188;2024-02-15T11:10:38;0.50;;;0.50;;
795;SDS011;381;48.770;9.188;2024-02-15T11:15:44;0.60;;;0.60;;
795;SDS011;381;48.770;9.188;2024-02-15T11:20:51;0.60;;;0.60;;
795;SDS011;381;48.770;9.188;2024-02-15T11:25:56;0.50;;;0.50;;
795;SDS011;381;48.770;9.188;2024-02-15T11:31:01;0.40;;;0.40;;
795;SDS011;381;48.770;9.188;2024-02-15T11:36:05;0.50;;;0.50;;
795;SDS011;381;48.770;9.188;2024-02-15T11:41:09;0.60;;;0.60;;
795;SDS011;381;48.770;9.188;2024-02-15T11:46:12;0.50;;;0.50;;
795;SDS011;381;48.770;9.188;2024-02-15T11:51:32;0.40;;;0.40;;
795;SDS011;381;48.770;9.188;2024-02-15T11:56:52;0.57;;;0.57;;
795;SDS011;381;48.770;9.188;2024-02-15T12:02:05;0.40;;;0.40;;
795;SDS011;381;48.770;9.188;2024-02-15T12:07:27;0.60;;;0.60;;
795;SDS011;381;48.770;9.188;2024-02-15T12:12:50;0.40;;;0.40;;
795;SDS011;381;48.770;9.188;2024-02-15T12:18:13;0.60;;;0.60;;
795;SDS011;381;48.770;9.188;2024-02-15T12:23:35;0.50;;;0.50;;
795;SDS011;381;48.770;9.188;2024-02-15T12:28:41;0.50;;;0.50;;
795;SDS011;381;48.770;9.188;2024-02-15T12:33:44;0.57;;;0.57;;
795;SDS011;381;48.770;9.188;2024-02-15T12:38:59;0.70;;;0.70;;
795;SDS011;381;48.770;9.188;2024-02-15T12:44:02;0.40;;;0.40;;
795;SDS011;381;48.770;9.188;2024-02-15T12:49:12;0.50;;;0.50;;
795;SDS011;381;48.770;9.188;2024-02-15T12:54:32;0.40;;;0.40;;
795;SDS011;381;48.770;9.188;2024-02-15T12:59:35;0.40;;;0.40;;
795;SDS011;381;48.770;9.188;2024-02-15T13:04:38;0.40;;;0.40;;
795;SDS011;381;48.770;9.188;2024-02-15T13:09:41;0.40;;;0.40;;
795;SDS011;381;48.770;9.188;2024-02-15T13:14:44;0.40;;;0.40;;
795;SDS011;381;48.770;9.188;2024-02-15T13:19:46;0.40;;;0.40;;
795;SDS011;381;48.770;9.188;2024-02-15T13:24:51;0.40;;;0.40;;
795;SDS011;381;48.770;9.188;2024-02-15T13:29:55;0.50;;;0.50;;
795;SDS011;381;48.770;9.188;2024-02-15T13:34:58;0.40;;;0.40;;
795;SDS011;381;48.770;9.188;2024-02-15T13:40:10;0.30;;;0.30;;
795;SDS011;381;48.770;9.188;2024-02-15T13:45:16;0.40;;;0.40;;
795;SDS011;381;48.770;9.188;2024-02-15T13:50:19;0.40;;;0.40;;
795;SDS011;381;48.770;9.188;2024-02-15T13:55:23;0.50;;;0.50;;
795;SDS011;381;48.770;9.188;2024-02-15T14:00:26;0.40;;;0.40;;
795;SDS011;381;48.770;9.188;2024-02-15T14:05:32;0.50;;;0.50;;
795;SDS011;381;48.770;9.188;2024-02-15T14:10:35;0.47;;;0.47;;
795;SDS011;381;48.770;9.188;2024-02-15T14:15:38;0.30;;;0.30;;
795;SDS011;381;48.770;9.188;2024-02-15T14:20:40;0.30;;;0.30;;
795;SDS011;381;48.770;9.188;2024-02-15T14:25:45;0.30;;;0.30;;
795;SDS011;381;48.770;9.188;2024-02-15T14:30:47;0.30;;;0.30;;
795;SDS011;381;48.770;9.188;2024-02-15T14:36:07;0.50;;;0.50;;
795;SDS011;381;48.770;9.188;2024-02-15T14:41:11;0.60;;;0.60;;
795;SDS011;381;48.770;9.188;2024-02-15T14:46:13;0.60;;;0.60;;
795;SDS011;381;48.770;9.188;2024-02-15T14:51:16;0.50;;;0.50;;
795;SDS011;381;48.770;9.188;2024-02-15T14:56:21;0.40;;;0.40;;
795;SDS011;381;48.770;9.188;2024-02-15T15:01:23;0.50;;;0.50;;
795;SDS011;381;48.770;9.188;2024-02-15T15:06:26;0.60;;;0.60;;
795;SDS011;381;48.770;9.188;2024-02-15T15:11:47;0.70;;;0.70;;
795;SDS011;381;48.770;9.188;2024-02-15T15:17:07;0.40;;;0.40;;
795;SDS011;381;48.770;9.188;2024-02-15T15:22:10;0.57;;;0.57;;
795;SDS011;381;48.770;9.188;2024-02-15T15:27:14;0.70;;;0.70;;
795;SDS011;381;48.770;9.188;2024-02-15T15:32:16;0.50;;;0.50;;
795;SDS011;381;48.770;9.188;2024-02-15T15:37:19;0.50;;;0.50;;
795;SDS011;381;48.770;9.188;2024-02-15T15:42:24;0.60;;;0.60;;
795;SDS011;381;48.770;9.188;2024-02-15T15:47:27;0.60;;;0.60;;
795;SDS011;381;48.770;9.188;2024-02-15T15:52:30;0.50;;;0.50;;
795;SDS011;381;48.770;9.188;2024-02-15T15:57:34;0.30;;;0.30;;
795;SDS011;381;48.770;9.188;2024-02-15T16:02:36;0.60;;;0.60;;
795;SDS011;381;48.770;9.188;2024-02-15T16:07:38;0.60;;;0.60;;
795;SDS011;381;48.770;9.188;2024-02-15T16:12:44;0.60;;;0.60;;
795;SDS011;381;48.770;9.188;2024-02-15T16:17:47;0.70;;;0.70;;
795;SDS011;381;48.770;9.188;2024-02-15T16:22:50;0.60;;;0.60;;
795;SDS011;381;48.770;9.188;2024-02-15T16:27:54;0.73;;;0.73;;
795;SDS011;381;48.770;9.188;2024-02-15T16:32:59;0.60;;;0.60;;
795;SDS011;381;48.770;9.188;2024-02-15T16:38:02;0.70;;;0.70;;
795;SDS011;381;48.770;9.188;2024-02-15T16:43:07;0.57;;;0.57;;
795;SDS011;381;48.770;9.188;2024-02-15T16:48:09;0.60;;;0.60;;
795;SDS011;381;48.770;9.188;2024-02-15T16:53:12;0.53;;;0.53;;
795;SDS011;381;48.770;9.188;2024-02-15T16:58:16;0.50;;;0.50;;
795;SDS011;381;48.770;9.188;2024-02-15T17:03:20;0.70;;;0.70;;
795;SDS011;381;48.770;9.188;2024-02-15T17:08:23;0.70;;;0.70;;
795;SDS011;381;48.770;9.188;2024-02-15T17:13:27;0.80;;;0.80;;
795;SDS011;381;48.770;9.188;2024-02-15T17:18:30;0.80;;;0.80;;
795;SDS011;381;48.770;9.188;2024-02-15T17:23:32;0.30;;;0.30;;
795;SDS011;381;48.770;9.188;2024-02-15T17:28:36;0.70;;;0.70;;
795;SDS011;381;48.770;9.188;2024-02-15T17:33:39;0.70;;;0.70;;
795;SDS011;381;48.770;9.188;2024-02-15T17:38:41;0.70;;;0.70;;
795;SDS011;381;48.770;9.188;2024-02-15T17:43:45;0.80;;;0.80;;
795;SDS011;381;48.770;9.188;2024-02-15T17:48:48;0.80;;;0.80;;
795;SDS011;381;48.770;9.188;2024-02-15T17:53:50;0.60;;;0.60;;
795;SDS011;381;48.770;9.188;2024-02-15T17:58:55;0.60;;;0.60;;
795;SDS011;381;48.770;9.188;2024-02-15T18:03:57;0.70;;;0.70;;
795;SDS011;381;48.770;9.188;2024-02-15T18:09:00;0.60;;;0.60;;
795;SDS011;381;48.770;9.188;2024-02-15T18:14:03;0.70;;;0.70;;
795;SDS011;381;48.770;9.188;2024-02-15T18:19:07;0.80;;;0.80;;
795;SDS011;381;48.770;9.188;2024-02-15T18:24:09;0.60;;;0.60;;
795;SDS011;381;48.770;9.188;2024-02-15T18:29:13;0.40;;;0.40;;
795;SDS011;381;48.770;9.188;2024-02-15T18:34:19;0.60;;;0.60;;
795;SDS011;381;48.770;9.188;2024-02-15T18:39:21;0.80;;;0.80;;
795;SDS011;381;48.770;9.188;2024-02-15T18:44:27;0.67;;;0.67;;
795;SDS011;381;48.770;9.188;2024-02-15T18:49:29;0.70;;;0.70;;
795;SDS011;381;48.770;9.188;2024-02-15T18:54:32;0.70;;;0.70;;
795;SDS011;381;48.770;9.188;2024-02-15T18:59:35;0.70;;;0.70;;
795;SDS011;381;48.770;9.188;2024-02-15T19:04:38;0.80;;;0.80;;
795;SDS011;381;48.770;9.188;2024-02-15T19:09:40;0.57;;;0.57;;
795;SDS011;381;48.770;9.188;2024-02-15T19:14:44;0.50;;;0.50;;
795;SDS011;381;48.770;9.188;2024-02-15T19:19:46;0.23;;;0.23;;
795;SDS011;381;48.770;9.188;2024-02-15T19:24:49;0.40;;;0.40;;
795;SDS011;381;48.770;9.188;2024-02-15T19:29:53;0.50;;;0.50;;
795;SDS011;381;48.770;9.188;2024-02-15T19:34:55;0.60;;;0.60;;
795;SDS011;381;48.770;9.188;2024-02-15T19:39:58;0.60;;;0.60;;
795;SDS011;381;48.770;9.188;2024-02-15T19:45:01;0.53;;;0.53;;
795;SDS011;381;48.770;9.188;2024-02-15T19:50:04;0.63;;;0.63;;
795;SDS011;381;48.770;9.188;2024-02-15T19:55:08;0.40;;;0.40;;
795;SDS011;381;48.770;9.188;2024-02-15T20:00:13;0.50;;;0.50;;
795;SDS011;381;48.770;9.188;2024-02-15T20:05:16;0.43;;;0.43;;
795;SDS011;381;48.770;9.188;2024-02-15T20:10:19;0.60;;;0.60;;
795;SDS011;381;48.770;9.188;2024-02-15T20:15:24;0.53;;;0.53;;
795;SDS011;381;48.770;9.188;2024-02-15T20:20:26;0.60;;;0.60;;
795;SDS011;381;48.770;9.188;2024-02-15T20:25:30;0.70;;;0.70;;
795;SDS011;381;48.770;9.188;2024-02-15T20:30:34;0.60;;;0.60;;
795;SDS011;381;48.770;9.188;2024-02-15T20:35:38;0.60;;;0.60;;
795;SDS011;381;48.770;9.188;2024-02-15T20:40:40;0.60;;;0.60;;
795;SDS011;381;48.770;9.188;2024-02-15T20:45:44;0.50;;;0.50;;
795;SDS011;381;48.770;9.188;2024-02-15T20:50:46;0.60;;;0.60;;
795;SDS011;381;48.770;9.188;2024-02-15T20:55:49;0.60;;;0.60;;
795;SDS011;381;48.770;9.188;2024-02-15T21:00:53;0.60;;;0.60;;
795;SDS011;381;48.770;9.188;2024-02-15T21:05:56;0.60;;;0.60;;
795;SDS011;381;48.770;9.188;2024-02-15T21:10:59;0.67;;;0.67;;
795;SDS011;381;48.770;9.188;2024-02-15T21:16:03;0.63;;;0.63;;
795;SDS011;381;48.770;9.188;2024-02-15T21:21:08;0.60;;;0.60;;
795;SDS011;381;48.770;9.188;2024-02-15T21:26:10;0.70;;;0.70;;
795;SDS011;381;48.770;9.188;2024-02-15T21:31:14;0.50;;;0.50;;
795;SDS011;381;48.770;9.188;2024-02-15T21:36:17;0.40;;;0.40;;
795;SDS011;381;48.770;9.188;2024-02-15T21:41:20;0.60;;;0.60;;
795;SDS011;381;48.770;9.188;2024-02-15T21:46:24;0.50;;;0.50;;
795;SDS011;381;48.770;9.188;2024-02-15T21:51:27;0.60;;;0.60;;
795;SDS011;381;48.770;9.188;2024-02-15T21:56:30;0.60;;;0.60;;
795;SDS011;381;48.770;9.188;2024-02-15T22:01:36;0.60;;;0.60;;
795;SDS011;381;48.770;9.188;2024-02-15T22:06:43;0.60;;;0.60;;
795;SDS011;381;48.770;9.188;2024-02-15T22:11:46;0.50;;;0.50;;
795;SDS011;381;48.770;9.188;2024-02-15T22:16:50;0.50;;;0.50;;
795;SDS011;381;48.770;9.188;2024-02-15T22:21:52;0.67;;;0.67;;
795;SDS011;381;48.770;9.188;2024-02-15T22:26:55;0.60;;;0.60;;
795;SDS011;381;48.770;9.188;2024-02-15T22:32:00;0.60;;;0.60;;
795;SDS011;381;48.770;9.188;2024-02-15T22:37:03;0.50;;;0.50;;
795;SDS011;381;48.770;9.188;2024-02-15T22:42:05;0.50;;;0.50;;
795;SDS011;381;48.770;9.188;2024-02-15T22:47:09;0.70;;;0.70;;
795;SDS011;381;48.770;9.188;2024-02-15T22:52:11;0.90;;;0.90;;
795;SDS011;381;48.770;9.188;2024-02-15T22:57:14;0.60;;;0.60;;
795;SDS011;381;48.770;9.188;2024-02-15T23:02:19;0.60;;;0.60;;
795;SDS011;381;48.770;9.188;2024-02-15T23:07:22;0.50;;;0.50;;
795;SDS011;381;48.770;9.188;2024-02-15T23:12:25;0.40;;;0.40;;
795;SDS011;381;48.770;9.188;2024-02-15T23:22:34;0.50;;;0.50;;
795;SDS011;381;48.770;9.188;2024-02-15T23:27:36;0.50;;;0.50;;
795;SDS011;381;48.770;9.188;2024-02-15T23:32:39;0.60;;;0.60;;
795;SDS011;381;48.770;9.188;2024-02-15T23:37:42;0.60;;;0.60;;
795;SDS011;381;48.770;9.188;2024-02-15T23:43:03;0.60;;;0.60;;
795;SDS011;381;48.770;9.188;2024-02-15T23:48:05;0.70;;;0.70;;
795;SDS011;381;48.770;9.188;2024-02-15T23:53:10;0.70;;;0.70;;
795;SDS011;381;48.770;9.188;2024-02-15T23:58:12;0.50;;;0.50;;
